Piper Inness — WDC3984 — position and weather

sailwx.info

Track history (hours):
 
Tides and Currents Weather Stations Pressure Air Temp Water Temp Dewpoint Dewpoint Depression Visibility Wind Speed Wind Dir Waves Ship Positions

Piper Inness

Owner: Foss Maritime Co, Seattle, WA. More information available from US FCC via Universal Licensing System and Coast Guard Vessel Documentation Center.

Last reported at 2014-Oct-25 20:33 UTC. Time now 2014-Oct-25 21:15 UTC.
Position N 33°46' W 118°13'.

; draft 2 m.

Type: Other ship. MMSI: 367017440.

Date/timePositionNaut miles runAvg speedWind from/ knotsBaromVisibWave heightAir tempDewpointWater temp
2014-Oct-25 20:33N 33°46' W 118°13'0 0.0
2014-Oct-25 19:33N 33°46' W 118°13'0 0.0
2014-Oct-25 18:33N 33°46' W 118°13'0 0.0
2014-Oct-25 17:33N 33°46' W 118°13'0 0.0
2014-Oct-25 16:33N 33°46' W 118°13'0 0.0
2014-Oct-25 15:33N 33°46' W 118°13'0 0.0
2014-Oct-25 14:33N 33°46' W 118°13'0 0.0
2014-Oct-25 13:33N 33°46' W 118°13'0 0.0
2014-Oct-25 12:33N 33°46' W 118°13'0 0.0
2014-Oct-25 11:33N 33°46' W 118°13'0 0.0
2014-Oct-25 10:33N 33°46' W 118°13'0 0.0
2014-Oct-25 09:33N 33°46' W 118°13'0 0.0
2014-Oct-25 08:33N 33°46' W 118°13'0 0.0
2014-Oct-25 07:33N 33°46' W 118°13'0 0.0
2014-Oct-25 06:33N 33°46' W 118°13'0 0.0
2014-Oct-25 05:33N 33°46' W 118°13'0 0.0
2014-Oct-25 04:33N 33°46' W 118°13'0 0.0
2014-Oct-25 03:33N 33°46' W 118°13'0 0.0
2014-Oct-25 02:33N 33°46' W 118°13'0 0.0
2014-Oct-25 01:33N 33°46' W 118°13'0 0.0
2014-Oct-25 00:33N 33°46' W 118°13'0 0.0
2014-Oct-24 23:33N 33°46' W 118°13'0 0.0
2014-Oct-24 22:33N 33°46' W 118°13'5 4.7
2014-Oct-24 21:34N 33°42' W 118°10'1716.7
2014-Oct-24 20:34N 33°27' W 118°02'1717.1
2014-Oct-24 19:33N 33°11' W 117°55'3 2.6
2014-Oct-24 18:34N 33°08' W 117°54'2 1.8
2014-Oct-24 17:33N 33°07' W 117°53'3 3.4
2014-Oct-24 16:33N 33°04' W 117°50'0 0.3
2014-Oct-24 15:33N 33°04' W 117°50'1 1.5
2014-Oct-24 14:33N 33°03' W 117°49'1 0.8
2014-Oct-24 13:33N 33°02' W 117°48'0 0.3
2014-Oct-24 12:33N 33°02' W 117°49'2 1.9
2014-Oct-24 11:33N 33°01' W 117°47'1 0.7
2014-Oct-24 10:33N 32°60' W 117°47'2 1.6
2014-Oct-24 09:34N 32°58' W 117°46'1 1.5
2014-Oct-24 08:33N 32°57' W 117°45'1 1.2
2014-Oct-24 07:33N 32°56' W 117°45'0 0.4
2014-Oct-24 06:33N 32°56' W 117°45'1 1.2
2014-Oct-24 05:33N 32°56' W 117°43'2 1.6
2014-Oct-24 04:34N 32°55' W 117°41'0 0.3
2014-Oct-24 03:33N 32°55' W 117°42'1 1.0
2014-Oct-24 02:33N 32°56' W 117°42'0 0.4
2014-Oct-24 01:33N 32°56' W 117°43'1 0.6
2014-Oct-24 00:33N 32°56' W 117°43'1 1.5
2014-Oct-23 23:33N 32°57' W 117°45'1 1.2
2014-Oct-23 22:33N 32°58' W 117°46'1 1.3
2014-Oct-23 21:33N 32°58' W 117°48'2 2.0
2014-Oct-23 20:34N 32°60' W 117°49'5 4.5
2014-Oct-23 19:33N 33°03' W 117°52'5 5.5
2014-Oct-23 18:33N 33°08' W 117°56'3 3.1
2014-Oct-23 17:34N 33°09' W 117°59'9 9.4
2014-Oct-23 16:33N 33°19' W 118°01'1716.9
2014-Oct-23 15:33N 33°35' W 118°07'1212.5
2014-Oct-23 14:33N 33°46' W 118°13'0 0.5
2014-Oct-23 13:33N 33°46' W 118°13'0 0.0
2014-Oct-23 12:34N 33°46' W 118°13'0 0.0
2014-Oct-23 11:34N 33°46' W 118°13'0 0.0
2014-Oct-23 10:34N 33°46' W 118°13'0 0.0
2014-Oct-23 09:33N 33°46' W 118°13'0 0.0
2014-Oct-23 08:34N 33°46' W 118°13'0 0.0
2014-Oct-23 07:33N 33°46' W 118°13'0 0.0
2014-Oct-23 06:33N 33°46' W 118°13'0 0.0
2014-Oct-23 05:34N 33°46' W 118°13'0 0.0
2014-Oct-23 04:33N 33°46' W 118°13'0 0.0
2014-Oct-23 03:34N 33°46' W 118°13'0 0.0
2014-Oct-23 02:34N 33°46' W 118°13'0 0.0
2014-Oct-23 01:34N 33°46' W 118°13'0 0.0
2014-Oct-23 00:34N 33°46' W 118°13'0 0.0
2014-Oct-22 23:34N 33°46' W 118°13'0 0.0
2014-Oct-22 22:34N 33°46' W 118°13'0 0.0
2014-Oct-22 21:33N 33°46' W 118°13'1 1.4
2014-Oct-22 20:33N 33°45' W 118°13'3 3.1
2014-Oct-22 19:33N 33°44' W 118°16'0 0.0
2014-Oct-22 18:33N 33°44' W 118°16'3 2.7
2014-Oct-22 17:34N 33°44' W 118°13'2 2.3
2014-Oct-22 16:33N 33°46' W 118°13'0 0.0
2014-Oct-22 15:33N 33°46' W 118°13'0 0.0
2014-Oct-22 14:33N 33°46' W 118°13'0 0.0
2014-Oct-22 13:33N 33°46' W 118°13'0 0.0
2014-Oct-22 12:33N 33°46' W 118°13'0 0.0
2014-Oct-22 11:33N 33°46' W 118°13'0 0.0
2014-Oct-22 10:33N 33°46' W 118°13'0 0.0
2014-Oct-22 09:33N 33°46' W 118°13'0 0.0
2014-Oct-22 08:30N 33°46' W 118°13'0 0.0
2014-Oct-22 07:33N 33°46' W 118°13'0 0.0
2014-Oct-22 06:33N 33°46' W 118°13'0 0.0
2014-Oct-22 05:33N 33°46' W 118°13'0 0.0
2014-Oct-22 04:33N 33°46' W 118°13'0 0.0
2014-Oct-22 03:33N 33°46' W 118°13'0 0.0
2014-Oct-22 02:33N 33°46' W 118°13'0 0.0
2014-Oct-22 01:30N 33°46' W 118°13'0 0.0
2014-Oct-22 00:33N 33°46' W 118°13'0 0.0
2014-Oct-21 23:33N 33°46' W 118°13'2 1.9
2014-Oct-21 22:33N 33°44' W 118°12'2016.4
2014-Oct-21 21:19N 33°26' W 118°01'1417.8
2014-Oct-21 20:33N 33°14' W 117°54'10 9.8
2014-Oct-21 19:33N 33°05' W 117°50'3 3.0
2014-Oct-21 18:32N 33°03' W 117°47'0 0.5
2014-Oct-21 17:33N 33°02' W 117°48'0 0.3
2014-Oct-21 16:34N 33°02' W 117°48'1 0.8
2014-Oct-21 15:33N 33°02' W 117°49'2 1.5
2014-Oct-21 14:32N 33°01' W 117°47'1 1.1
2014-Oct-21 13:33N 33°00' W 117°47'1 0.9
2014-Oct-21 12:31N 32°59' W 117°46'1 0.7
2014-Oct-21 11:33N 32°59' W 117°47'1 1.0
2014-Oct-21 10:33N 32°58' W 117°48'1 0.7
2014-Oct-21 09:33N 32°58' W 117°48'1 1.3
2014-Oct-21 08:33N 32°57' W 117°47'1 1.1
2014-Oct-21 07:33N 32°56' W 117°47'2 1.5
2014-Oct-21 06:33N 32°54' W 117°46'1 1.3
2014-Oct-21 05:33N 32°56' W 117°46'3 2.6
2014-Oct-21 04:34N 32°54' W 117°44'1 0.5
2014-Oct-21 03:34N 32°54' W 117°44'4 4.4
2014-Oct-21 02:33N 32°58' W 117°48'4 3.9
2014-Oct-21 01:33N 33°00' W 117°51'4 4.4
2014-Oct-21 00:33N 33°04' W 117°55'4 3.9
2014-Oct-20 23:33N 33°07' W 117°58'6 5.9
2014-Oct-20 22:33N 33°12' W 118°01'3316.3
2014-Oct-20 20:33N 33°43' W 118°11'3 3.1
2014-Oct-20 19:33N 33°46' W 118°13'0 0.0
2014-Oct-19 08:33N 33°46' W 118°13'3214.3
2014-Oct-19 06:19N 33°17' W 117°57'1215.7
2014-Oct-19 05:33N 33°06' W 117°51'1 1.4
2014-Oct-19 04:33N 33°05' W 117°51'1 0.9
2014-Oct-19 03:33N 33°05' W 117°50'2 2.0
2014-Oct-19 02:33N 33°04' W 117°47'2 1.9
2014-Oct-19 01:33N 33°04' W 117°50'3 2.5
2014-Oct-19 00:33N 33°03' W 117°47'1 0.5
2014-Oct-18 23:33N 33°02' W 117°48'1 1.3
2014-Oct-18 22:33N 33°01' W 117°47'1 0.7
2014-Oct-18 21:33N 33°01' W 117°46'1 1.3
2014-Oct-18 20:33N 32°60' W 117°46'1 1.0
2014-Oct-18 19:33N 32°59' W 117°45'1 0.6
2014-Oct-18 18:33N 32°59' W 117°45'1 1.2
2014-Oct-18 17:33N 32°58' W 117°44'3 3.0
2014-Oct-18 16:33N 32°55' W 117°43'1 0.7
2014-Oct-18 15:33N 32°55' W 117°42'0 0.3
2014-Oct-18 14:33N 32°55' W 117°42'2 2.1
2014-Oct-18 13:33N 32°56' W 117°44'2 1.6
2014-Oct-18 12:33N 32°57' W 117°46'1 0.8
2014-Oct-18 11:34N 32°56' W 117°46'1 1.0
2014-Oct-18 10:33N 32°56' W 117°47'2 1.7
2014-Oct-18 09:33N 32°57' W 117°49'3 3.5
2014-Oct-18 08:33N 32°60' W 117°51'4 4.2
2014-Oct-18 07:34N 33°03' W 117°53'4 4.3
2014-Oct-18 06:34N 33°07' W 117°55'2 1.9
2014-Oct-18 05:33N 33°09' W 117°56'2 1.9
2014-Oct-18 04:33N 33°09' W 117°58'0 0.4
2014-Oct-18 03:34N 33°10' W 117°58'6 6.3
2014-Oct-18 02:33N 33°16' W 117°57'3115.5
2014-Oct-18 00:33N 33°44' W 118°12'2 2.2
2014-Oct-17 23:33N 33°46' W 118°13'0 0.0
2014-Oct-17 22:31N 33°46' W 118°13'0 0.0
2014-Oct-17 21:31N 33°46' W 118°13'0 0.0
2014-Oct-17 20:31N 33°46' W 118°13'0 0.0
2014-Oct-17 19:31N 33°46' W 118°13'0 0.0
2014-Oct-17 18:31N 33°46' W 118°13'0 0.0
2014-Oct-17 17:28N 33°46' W 118°13'0 0.0
2014-Oct-17 16:31N 33°46' W 118°13'0 0.0
2014-Oct-17 15:31N 33°46' W 118°13'0 0.0
2014-Oct-17 14:31N 33°46' W 118°13'0 0.0
2014-Oct-17 13:31N 33°46' W 118°13'0 0.0
2014-Oct-17 12:31N 33°46' W 118°13'0 0.0
2014-Oct-17 11:31N 33°46' W 118°13'0 0.0
2014-Oct-17 10:31N 33°46' W 118°13'0 0.0
2014-Oct-17 09:31N 33°46' W 118°13'0 0.0
2014-Oct-17 08:31N 33°46' W 118°13'0 0.0
2014-Oct-17 07:31N 33°46' W 118°13'0 0.0
2014-Oct-17 06:28N 33°46' W 118°13'0 0.0
2014-Oct-17 05:31N 33°46' W 118°13'0 0.0
2014-Oct-17 04:31N 33°46' W 118°13'0 0.0
2014-Oct-17 03:31N 33°46' W 118°13'0 0.0
2014-Oct-17 02:31N 33°46' W 118°13'0 0.0
2014-Oct-17 01:31N 33°46' W 118°13'0 0.0
2014-Oct-17 00:28N 33°46' W 118°13'0 0.0
2014-Oct-16 23:31N 33°46' W 118°13'0 0.0
2014-Oct-16 22:22N 33°46' W 118°13'0 0.0
2014-Oct-16 21:31N 33°46' W 118°13'0 0.0
2014-Oct-16 20:31N 33°46' W 118°13'0 0.0
2014-Oct-16 19:31N 33°46' W 118°13'0 0.0
2014-Oct-16 18:31N 33°46' W 118°13'0 0.0
2014-Oct-16 17:31N 33°46' W 118°13'0 0.0
2014-Oct-16 16:31N 33°46' W 118°13'0 0.0
2014-Oct-16 15:31N 33°46' W 118°13'0 0.0
2014-Oct-16 14:31N 33°46' W 118°13'0 0.0
2014-Oct-16 13:28N 33°46' W 118°13'0 0.0
2014-Oct-16 12:31N 33°46' W 118°13'0 0.0
2014-Oct-16 11:34N 33°46' W 118°13'0 0.0
2014-Oct-16 10:34N 33°46' W 118°13'0 0.0
2014-Oct-16 09:34N 33°46' W 118°13'0 0.0
2014-Oct-16 08:31N 33°46' W 118°13'0 0.0
2014-Oct-16 07:31N 33°46' W 118°13'0 0.0
2014-Oct-16 06:33N 33°46' W 118°13'0 0.0
2014-Oct-16 05:31N 33°46' W 118°13'0 0.0
2014-Oct-16 04:31N 33°46' W 118°13'0 0.0
2014-Oct-16 03:31N 33°46' W 118°13'0 0.0
2014-Oct-16 02:31N 33°46' W 118°13'0 0.0
2014-Oct-16 01:33N 33°46' W 118°13'0 0.0
2014-Oct-16 00:31N 33°46' W 118°13'0 0.0
2014-Oct-15 23:34N 33°46' W 118°13'0 0.0
2014-Oct-15 22:31N 33°46' W 118°13'0 0.0
2014-Oct-15 21:32N 33°46' W 118°13'  
Track history (hours):
 
Tides and Currents Weather Stations Pressure Air Temp Water Temp Dewpoint Dewpoint Depression Visibility Wind Speed Wind Dir Waves Ship Positions

Piper Inness

Owner: Foss Maritime Co, Seattle, WA. More information available from US FCC via Universal Licensing System and Coast Guard Vessel Documentation Center.

Last reported at 2014-Oct-25 20:33 UTC. Time now 2014-Oct-25 21:15 UTC.
Position N 33°46' W 118°13'.

; draft 2 m.

Type: Other ship. MMSI: 367017440.

Date/timePositionNaut miles runAvg speedWind from/ knotsBaromVisibWave heightAir tempDewpointWater temp
2014-Oct-25 20:33N 33°46' W 118°13'0 0.0
2014-Oct-25 19:33N 33°46' W 118°13'0 0.0
2014-Oct-25 18:33N 33°46' W 118°13'0 0.0
2014-Oct-25 17:33N 33°46' W 118°13'0 0.0
2014-Oct-25 16:33N 33°46' W 118°13'0 0.0
2014-Oct-25 15:33N 33°46' W 118°13'0 0.0
2014-Oct-25 14:33N 33°46' W 118°13'0 0.0
2014-Oct-25 13:33N 33°46' W 118°13'0 0.0
2014-Oct-25 12:33N 33°46' W 118°13'0 0.0
2014-Oct-25 11:33N 33°46' W 118°13'0 0.0
2014-Oct-25 10:33N 33°46' W 118°13'0 0.0
2014-Oct-25 09:33N 33°46' W 118°13'0 0.0
2014-Oct-25 08:33N 33°46' W 118°13'0 0.0
2014-Oct-25 07:33N 33°46' W 118°13'0 0.0
2014-Oct-25 06:33N 33°46' W 118°13'0 0.0
2014-Oct-25 05:33N 33°46' W 118°13'0 0.0
2014-Oct-25 04:33N 33°46' W 118°13'0 0.0
2014-Oct-25 03:33N 33°46' W 118°13'0 0.0
2014-Oct-25 02:33N 33°46' W 118°13'0 0.0
2014-Oct-25 01:33N 33°46' W 118°13'0 0.0
2014-Oct-25 00:33N 33°46' W 118°13'0 0.0
2014-Oct-24 23:33N 33°46' W 118°13'0 0.0
2014-Oct-24 22:33N 33°46' W 118°13'5 4.7
2014-Oct-24 21:34N 33°42' W 118°10'1716.7
2014-Oct-24 20:34N 33°27' W 118°02'1717.1
2014-Oct-24 19:33N 33°11' W 117°55'3 2.6
2014-Oct-24 18:34N 33°08' W 117°54'2 1.8
2014-Oct-24 17:33N 33°07' W 117°53'3 3.4
2014-Oct-24 16:33N 33°04' W 117°50'0 0.3
2014-Oct-24 15:33N 33°04' W 117°50'1 1.5
2014-Oct-24 14:33N 33°03' W 117°49'1 0.8
2014-Oct-24 13:33N 33°02' W 117°48'0 0.3
2014-Oct-24 12:33N 33°02' W 117°49'2 1.9
2014-Oct-24 11:33N 33°01' W 117°47'1 0.7
2014-Oct-24 10:33N 32°60' W 117°47'2 1.6
2014-Oct-24 09:34N 32°58' W 117°46'1 1.5
2014-Oct-24 08:33N 32°57' W 117°45'1 1.2
2014-Oct-24 07:33N 32°56' W 117°45'0 0.4
2014-Oct-24 06:33N 32°56' W 117°45'1 1.2
2014-Oct-24 05:33N 32°56' W 117°43'2 1.6
2014-Oct-24 04:34N 32°55' W 117°41'0 0.3
2014-Oct-24 03:33N 32°55' W 117°42'1 1.0
2014-Oct-24 02:33N 32°56' W 117°42'0 0.4
2014-Oct-24 01:33N 32°56' W 117°43'1 0.6
2014-Oct-24 00:33N 32°56' W 117°43'1 1.5
2014-Oct-23 23:33N 32°57' W 117°45'1 1.2
2014-Oct-23 22:33N 32°58' W 117°46'1 1.3
2014-Oct-23 21:33N 32°58' W 117°48'2 2.0
2014-Oct-23 20:34N 32°60' W 117°49'5 4.5
2014-Oct-23 19:33N 33°03' W 117°52'5 5.5
2014-Oct-23 18:33N 33°08' W 117°56'3 3.1
2014-Oct-23 17:34N 33°09' W 117°59'9 9.4
2014-Oct-23 16:33N 33°19' W 118°01'1716.9
2014-Oct-23 15:33N 33°35' W 118°07'1212.5
2014-Oct-23 14:33N 33°46' W 118°13'0 0.5
2014-Oct-23 13:33N 33°46' W 118°13'0 0.0
2014-Oct-23 12:34N 33°46' W 118°13'0 0.0
2014-Oct-23 11:34N 33°46' W 118°13'0 0.0
2014-Oct-23 10:34N 33°46' W 118°13'0 0.0
2014-Oct-23 09:33N 33°46' W 118°13'0 0.0
2014-Oct-23 08:34N 33°46' W 118°13'0 0.0
2014-Oct-23 07:33N 33°46' W 118°13'0 0.0
2014-Oct-23 06:33N 33°46' W 118°13'0 0.0
2014-Oct-23 05:34N 33°46' W 118°13'0 0.0
2014-Oct-23 04:33N 33°46' W 118°13'0 0.0
2014-Oct-23 03:34N 33°46' W 118°13'0 0.0
2014-Oct-23 02:34N 33°46' W 118°13'0 0.0
2014-Oct-23 01:34N 33°46' W 118°13'0 0.0
2014-Oct-23 00:34N 33°46' W 118°13'0 0.0
2014-Oct-22 23:34N 33°46' W 118°13'0 0.0
2014-Oct-22 22:34N 33°46' W 118°13'0 0.0
2014-Oct-22 21:33N 33°46' W 118°13'1 1.4
2014-Oct-22 20:33N 33°45' W 118°13'3 3.1
2014-Oct-22 19:33N 33°44' W 118°16'0 0.0
2014-Oct-22 18:33N 33°44' W 118°16'3 2.7
2014-Oct-22 17:34N 33°44' W 118°13'2 2.3
2014-Oct-22 16:33N 33°46' W 118°13'0 0.0
2014-Oct-22 15:33N 33°46' W 118°13'0 0.0
2014-Oct-22 14:33N 33°46' W 118°13'0 0.0
2014-Oct-22 13:33N 33°46' W 118°13'0 0.0
2014-Oct-22 12:33N 33°46' W 118°13'0 0.0
2014-Oct-22 11:33N 33°46' W 118°13'0 0.0
2014-Oct-22 10:33N 33°46' W 118°13'0 0.0
2014-Oct-22 09:33N 33°46' W 118°13'0 0.0
2014-Oct-22 08:30N 33°46' W 118°13'0 0.0
2014-Oct-22 07:33N 33°46' W 118°13'0 0.0
2014-Oct-22 06:33N 33°46' W 118°13'0 0.0
2014-Oct-22 05:33N 33°46' W 118°13'0 0.0
2014-Oct-22 04:33N 33°46' W 118°13'0 0.0
2014-Oct-22 03:33N 33°46' W 118°13'0 0.0
2014-Oct-22 02:33N 33°46' W 118°13'0 0.0
2014-Oct-22 01:30N 33°46' W 118°13'0 0.0
2014-Oct-22 00:33N 33°46' W 118°13'0 0.0
2014-Oct-21 23:33N 33°46' W 118°13'2 1.9
2014-Oct-21 22:33N 33°44' W 118°12'2016.4
2014-Oct-21 21:19N 33°26' W 118°01'1417.8
2014-Oct-21 20:33N 33°14' W 117°54'10 9.8
2014-Oct-21 19:33N 33°05' W 117°50'3 3.0
2014-Oct-21 18:32N 33°03' W 117°47'0 0.5
2014-Oct-21 17:33N 33°02' W 117°48'0 0.3
2014-Oct-21 16:34N 33°02' W 117°48'1 0.8
2014-Oct-21 15:33N 33°02' W 117°49'2 1.5
2014-Oct-21 14:32N 33°01' W 117°47'1 1.1
2014-Oct-21 13:33N 33°00' W 117°47'1 0.9
2014-Oct-21 12:31N 32°59' W 117°46'1 0.7
2014-Oct-21 11:33N 32°59' W 117°47'1 1.0
2014-Oct-21 10:33N 32°58' W 117°48'1 0.7
2014-Oct-21 09:33N 32°58' W 117°48'1 1.3
2014-Oct-21 08:33N 32°57' W 117°47'1 1.1
2014-Oct-21 07:33N 32°56' W 117°47'2 1.5
2014-Oct-21 06:33N 32°54' W 117°46'1 1.3
2014-Oct-21 05:33N 32°56' W 117°46'3 2.6
2014-Oct-21 04:34N 32°54' W 117°44'1 0.5
2014-Oct-21 03:34N 32°54' W 117°44'4 4.4
2014-Oct-21 02:33N 32°58' W 117°48'4 3.9
2014-Oct-21 01:33N 33°00' W 117°51'4 4.4
2014-Oct-21 00:33N 33°04' W 117°55'4 3.9
2014-Oct-20 23:33N 33°07' W 117°58'6 5.9
2014-Oct-20 22:33N 33°12' W 118°01'3316.3
2014-Oct-20 20:33N 33°43' W 118°11'3 3.1
2014-Oct-20 19:33N 33°46' W 118°13'0 0.0
2014-Oct-19 08:33N 33°46' W 118°13'3214.3
2014-Oct-19 06:19N 33°17' W 117°57'1215.7
2014-Oct-19 05:33N 33°06' W 117°51'1 1.4
2014-Oct-19 04:33N 33°05' W 117°51'1 0.9
2014-Oct-19 03:33N 33°05' W 117°50'2 2.0
2014-Oct-19 02:33N 33°04' W 117°47'2 1.9
2014-Oct-19 01:33N 33°04' W 117°50'3 2.5
2014-Oct-19 00:33N 33°03' W 117°47'1 0.5
2014-Oct-18 23:33N 33°02' W 117°48'1 1.3
2014-Oct-18 22:33N 33°01' W 117°47'1 0.7
2014-Oct-18 21:33N 33°01' W 117°46'1 1.3
2014-Oct-18 20:33N 32°60' W 117°46'1 1.0
2014-Oct-18 19:33N 32°59' W 117°45'1 0.6
2014-Oct-18 18:33N 32°59' W 117°45'1 1.2
2014-Oct-18 17:33N 32°58' W 117°44'3 3.0
2014-Oct-18 16:33N 32°55' W 117°43'1 0.7
2014-Oct-18 15:33N 32°55' W 117°42'0 0.3
2014-Oct-18 14:33N 32°55' W 117°42'2 2.1
2014-Oct-18 13:33N 32°56' W 117°44'2 1.6
2014-Oct-18 12:33N 32°57' W 117°46'1 0.8
2014-Oct-18 11:34N 32°56' W 117°46'1 1.0
2014-Oct-18 10:33N 32°56' W 117°47'2 1.7
2014-Oct-18 09:33N 32°57' W 117°49'3 3.5
2014-Oct-18 08:33N 32°60' W 117°51'4 4.2
2014-Oct-18 07:34N 33°03' W 117°53'4 4.3
2014-Oct-18 06:34N 33°07' W 117°55'2 1.9
2014-Oct-18 05:33N 33°09' W 117°56'2 1.9
2014-Oct-18 04:33N 33°09' W 117°58'0 0.4
2014-Oct-18 03:34N 33°10' W 117°58'6 6.3
2014-Oct-18 02:33N 33°16' W 117°57'3115.5
2014-Oct-18 00:33N 33°44' W 118°12'2 2.2
2014-Oct-17 23:33N 33°46' W 118°13'0 0.0
2014-Oct-17 22:31N 33°46' W 118°13'0 0.0
2014-Oct-17 21:31N 33°46' W 118°13'0 0.0
2014-Oct-17 20:31N 33°46' W 118°13'0 0.0
2014-Oct-17 19:31N 33°46' W 118°13'0 0.0
2014-Oct-17 18:31N 33°46' W 118°13'0 0.0
2014-Oct-17 17:28N 33°46' W 118°13'0 0.0
2014-Oct-17 16:31N 33°46' W 118°13'0 0.0
2014-Oct-17 15:31N 33°46' W 118°13'0 0.0
2014-Oct-17 14:31N 33°46' W 118°13'0 0.0
2014-Oct-17 13:31N 33°46' W 118°13'0 0.0
2014-Oct-17 12:31N 33°46' W 118°13'0 0.0
2014-Oct-17 11:31N 33°46' W 118°13'0 0.0
2014-Oct-17 10:31N 33°46' W 118°13'0 0.0
2014-Oct-17 09:31N 33°46' W 118°13'0 0.0
2014-Oct-17 08:31N 33°46' W 118°13'0 0.0
2014-Oct-17 07:31N 33°46' W 118°13'0 0.0
2014-Oct-17 06:28N 33°46' W 118°13'0 0.0
2014-Oct-17 05:31N 33°46' W 118°13'0 0.0
2014-Oct-17 04:31N 33°46' W 118°13'0 0.0
2014-Oct-17 03:31N 33°46' W 118°13'0 0.0
2014-Oct-17 02:31N 33°46' W 118°13'0 0.0
2014-Oct-17 01:31N 33°46' W 118°13'0 0.0
2014-Oct-17 00:28N 33°46' W 118°13'0 0.0
2014-Oct-16 23:31N 33°46' W 118°13'0 0.0
2014-Oct-16 22:22N 33°46' W 118°13'0 0.0
2014-Oct-16 21:31N 33°46' W 118°13'0 0.0
2014-Oct-16 20:31N 33°46' W 118°13'0 0.0
2014-Oct-16 19:31N 33°46' W 118°13'0 0.0
2014-Oct-16 18:31N 33°46' W 118°13'0 0.0
2014-Oct-16 17:31N 33°46' W 118°13'0 0.0
2014-Oct-16 16:31N 33°46' W 118°13'0 0.0
2014-Oct-16 15:31N 33°46' W 118°13'0 0.0
2014-Oct-16 14:31N 33°46' W 118°13'0 0.0
2014-Oct-16 13:28N 33°46' W 118°13'0 0.0
2014-Oct-16 12:31N 33°46' W 118°13'0 0.0
2014-Oct-16 11:34N 33°46' W 118°13'0 0.0
2014-Oct-16 10:34N 33°46' W 118°13'0 0.0
2014-Oct-16 09:34N 33°46' W 118°13'0 0.0
2014-Oct-16 08:31N 33°46' W 118°13'0 0.0
2014-Oct-16 07:31N 33°46' W 118°13'0 0.0
2014-Oct-16 06:33N 33°46' W 118°13'0 0.0
2014-Oct-16 05:31N 33°46' W 118°13'0 0.0
2014-Oct-16 04:31N 33°46' W 118°13'0 0.0
2014-Oct-16 03:31N 33°46' W 118°13'0 0.0
2014-Oct-16 02:31N 33°46' W 118°13'0 0.0
2014-Oct-16 01:33N 33°46' W 118°13'0 0.0
2014-Oct-16 00:31N 33°46' W 118°13'0 0.0
2014-Oct-15 23:34N 33°46' W 118°13'0 0.0
2014-Oct-15 22:31N 33°46' W 118°13'0 0.0
2014-Oct-15 21:32N 33°46' W 118°13'  

Dump ship's entire track history